Tiempo atmosférico en la estación meteorológica de Alosno, Huelva (276 m.)



Fecha
DESCASC
Temp. máxima en grados centígrados (hora)
DESCASC
Temp. mínima en grados centígrados (hora)
DESCASC
Temp. media en grados centígrados
DESCASC
Racha de viento máxima en m/sg (hora)
DESCASC
Velocidad máxima media en intervalos de 10 minutos(hora)
DESCASC
Precipitaciones diarias en mm
DESCASC
Precipitaciones de 00:00 a 06:00 en mm
DESCASC
Precipitaciones de 06:00 a 12:00 en mm
DESCASC
Precipitaciones de 12:00 a 18:00 en mm
DESCASC
Precipitaciones de 18:00 a 24:00 en mm
DESCASC

Gráficas

Temp. máximas Temp. mínimas Temp. medias Precipitaciones Rachas de viento máximas Velocidades máximas media en intervalos de 10 minutos

Datos horarios

Fecha y hora oficial Temperatura (ºC) Velocidad del viento (km/h) Dirección del viento Racha (km/h) Dirección de racha Precipitación (mm) Presión (hPa) Tendencia (hPa) Humedad (%)
2018-09-23 23:00:00 27.1 17 Sudoeste 24 Sur 0 -- -- 35
2018-09-23 22:00:00 27.8 18 Sudoeste 27 Sur 0 -- -- 31
2018-09-23 21:00:00 29.9 18 Sur 26 Sur 0 -- -- 30
2018-09-23 20:00:00 34.1 12 Sudeste 26 Sudeste 0 -- -- 25
2018-09-23 19:00:00 36.2 9 Sudeste 24 Este 0 -- -- 22
2018-09-23 18:00:00 36.7 8 Sudeste 26 Este 0 -- -- 21
2018-09-23 17:00:00 37 12 Este 27 Este 0 -- -- 21
2018-09-23 16:00:00 36.5 11 Este 24 Este 0 -- -- 21
2018-09-23 15:00:00 36 6 Este 17 Sudeste 0 -- -- 22
2018-09-23 14:00:00 35.1 9 Sudeste 21 Este 0 -- -- 24
2018-09-23 13:00:00 34 9 Este 19 Sudeste 0 -- -- 26
2018-09-23 12:00:00 32.5 8 Sudeste 14 Sudeste 0 -- -- 28
2018-09-23 11:00:00 30 5 Este 10 Este 0 -- -- 33
2018-09-23 10:00:00 27 3 Este 9 Este 0 -- -- 40
2018-09-23 09:00:00 24 6 Este 11 Este 0 -- -- 46
2018-09-23 08:00:00 22.4 6 Este 10 Nordeste 0 -- -- 53
2018-09-23 07:00:00 22.5 5 Este 7 Este 0 -- -- 53
2018-09-23 06:00:00 22.4 4 Este 5 Este 0 -- -- 54
2018-09-23 05:00:00 22.3 4 Nordeste 6 Nordeste 0 -- -- 53
2018-09-23 04:00:00 23.4 2 Nordeste 7 Sudoeste 0 -- -- 51
2018-09-23 03:00:00 25.2 6 Sudoeste 9 Sudoeste 0 -- -- 41
2018-09-23 02:00:00 25.5 6 Sudoeste 9 Sudoeste 0 -- -- 40
2018-09-23 01:00:00 26 7 Sudoeste 11 Sudoeste 0 -- -- 39
2018-09-23 00:00:00 25.9 8 Sudoeste 15 Oeste 0 -- -- 41
2018-09-22 23:00:00 26.4 14 Oeste 26 Sudoeste 0 -- -- 42
2018-09-22 22:00:00 27.2 17 Sudoeste 28 Sur 0 -- -- 41
2018-09-22 21:00:00 28.7 22 Sur 28 Sur 0 -- -- 37
2018-09-22 20:00:00 32.6 17 Sudoeste 26 Sudoeste 0 -- -- 32
2018-09-22 19:00:00 34.7 14 Sudoeste 32 Sudeste 0 -- -- 28
2018-09-22 18:00:00 36 12 Sur 30 Sur 0 -- -- 22
2018-09-22 17:00:00 36 19 Sur 35 Sur 0 -- -- 23
2018-09-22 16:00:00 36 14 Sudeste 32 Sudeste 0 -- -- 23
2018-09-22 15:00:00 35.4 9 Sudeste 35 Nordeste 0 -- -- 26
2018-09-22 14:00:00 34.9 8 Sudeste 24 Sudeste 0 -- -- 29
2018-09-22 13:00:00 33.1 12 Este 23 Este 0 -- -- 30
2018-09-22 12:00:00 31.1 6 Este 13 Este 0 -- -- 35
2018-09-22 11:00:00 28.5 5 Este 8 Este 0 -- -- 40
2018-09-22 10:00:00 23.7 0 Calma 4 Norte 0 -- -- 56
2018-09-22 09:00:00 20.4 0 Calma 5 Oeste 0 -- -- 66
2018-09-22 08:00:00 20 5 Oeste 7 Oeste 0 -- -- 65
2018-09-22 07:00:00 20.6 4 Oeste 12 Noroeste 0 -- -- 60
2018-09-22 06:00:00 21.5 6 Noroeste 8 Oeste 0 -- -- 55
2018-09-22 05:00:00 21.6 6 Noroeste 10 Noroeste 0 -- -- 55
2018-09-22 04:00:00 22.5 8 Noroeste 13 Noroeste 0 -- -- 53
2018-09-22 03:00:00 23.8 4 Noroeste 8 Noroeste 0 -- -- 51
2018-09-22 02:00:00 24.2 6 Noroeste 12 Noroeste 0 -- -- 53
2018-09-22 01:00:00 25 6 Noroeste 19 Noroeste 0 -- -- 52
2018-09-22 00:00:00 26.1 6 Oeste 13 Oeste 0 -- -- 46
2018-09-21 23:00:00 26.5 10 Oeste 17 Noroeste 0 -- -- 45
2018-09-21 22:00:00 27.1 6 Oeste 16 Sudoeste 0 -- -- 44
2018-09-21 21:00:00 28.6 12 Sudoeste 25 Sudoeste 0 -- -- 41
2018-09-21 20:00:00 30.3 19 Sudoeste 29 Sur 0 -- -- 36
2018-09-21 19:00:00 31.8 21 Sudoeste 30 Sudoeste 0 -- -- 37
2018-09-21 18:00:00 33 10 Sudoeste 28 Este 0 -- -- 32
2018-09-21 17:00:00 32.4 5 Norte 33 Sudeste 0 -- -- 33
2018-09-21 16:00:00 33.2 6 Sur 16 Norte 0 -- -- 32
2018-09-21 15:00:00 31.5 5 Norte 18 Noroeste 0 -- -- 35
2018-09-21 14:00:00 30.3 9 Noroeste 18 Norte 0 -- -- 39
2018-09-21 13:00:00 29 4 Noroeste 14 Noroeste 0 -- -- 41
2018-09-21 12:00:00 26.1 7 Noroeste 17 Noroeste 0 -- -- 48
2018-09-21 11:00:00 22.5 10 Noroeste 18 Noroeste 0 -- -- 58
2018-09-21 10:00:00 20.3 10 Noroeste 17 Noroeste 0 -- -- 67
2018-09-21 09:00:00 18.3 2 Oeste 9 Oeste 0 -- -- 72
2018-09-21 08:00:00 17.9 5 Oeste 18 Noroeste 0 -- -- 73
2018-09-21 07:00:00 18.4 14 Noroeste 31 Noroeste 0 -- -- 72
2018-09-21 06:00:00 19.4 4 Oeste 16 Noroeste 0 -- -- 67
2018-09-21 05:00:00 20 12 Noroeste 22 Noroeste 0 -- -- 64
2018-09-21 04:00:00 21.1 13 Noroeste 25 Noroeste 0 -- -- 59
2018-09-21 03:00:00 21.5 13 Noroeste 18 Noroeste 0 -- -- 55
2018-09-21 02:00:00 22.2 11 Noroeste 16 Noroeste 0 -- -- 53
2018-09-21 01:00:00 23.4 11 Noroeste 17 Noroeste 0 -- -- 52
2018-09-21 00:00:00 24.6 10 Oeste 14 Sudoeste 0 -- -- 57
2018-09-20 23:00:00 25.3 9 Sudoeste 16 Sudoeste 0 -- -- 61
2018-09-20 22:00:00 25.7 15 Sur 24 Sudoeste 0 -- -- 60
2018-09-20 21:00:00 26.3 16 Sudoeste 27 Sudoeste 0 -- -- 60
2018-09-20 20:00:00 28.6 19 Sudoeste 27 Sudoeste 0 -- -- 53
2018-09-20 19:00:00 30.7 16 Sudoeste 27 Sudoeste 0 -- -- 45
2018-09-20 18:00:00 31.5 13 Sudoeste 27 Sudoeste 0 -- -- 44
2018-09-20 17:00:00 32 14 Sudoeste 28 Sur 0 -- -- 44
2018-09-20 16:00:00 31.9 13 Sur 28 Sudoeste 0 -- -- 44
2018-09-20 15:00:00 31.4 13 Sur 30 Sudoeste 0 -- -- 46
2018-09-20 14:00:00 30.4 14 Sur 23 Sur 0 -- -- 46
2018-09-20 13:00:00 29.3 10 Sudoeste 22 Sudoeste 0 -- -- 50
2018-09-20 12:00:00 27.2 13 Sur 23 Sur 0 -- -- 59
2018-09-20 11:00:00 25 14 Sudoeste 22 Sudoeste 0 -- -- 69
2018-09-20 10:00:00 23.3 7 Sur 14 Sur 0 -- -- 79
2018-09-20 09:00:00 20.5 0 Calma 12 Sudeste 0 -- -- 88
2018-09-20 08:00:00 21 6 Sudeste 12 Sur 0 -- -- 91
2018-09-20 07:00:00 21.5 5 Sur 13 Sur 0 -- -- 89
2018-09-20 06:00:00 21.6 6 Sudoeste 11 Sur 0 -- -- 86
2018-09-20 05:00:00 21.8 4 Sudeste 14 Sur 0 -- -- 84
2018-09-20 04:00:00 22.3 11 Sur 18 Sur 0 -- -- 72
2018-09-20 03:00:00 23.9 3 Oeste 5 Oeste 0 -- -- 51
2018-09-20 02:00:00 24.6 0 Calma 8 Oeste 0 -- -- 52
2018-09-20 01:00:00 25.4 5 Oeste 13 Oeste 0 -- -- 53
2018-09-20 00:00:00 25.5 8 Oeste 12 Oeste 0 -- -- 57
2018-09-19 23:00:00 24.9 6 Oeste 19 Sudoeste 0 -- -- 59
2018-09-19 22:00:00 25.4 16 Sudoeste 23 Sur 0 -- -- 59
2018-09-19 21:00:00 26.5 18 Sudoeste 30 Sudoeste 0 -- -- 57
2018-09-19 20:00:00 29.7 22 Sur 28 Sur 0 -- -- 46
2018-09-19 19:00:00 31.6 15 Sur 30 Sur 0 -- -- 41
2018-09-19 18:00:00 32.1 19 Sur 30 Sur 0 -- -- 39
2018-09-19 17:00:00 32.3 11 Sudoeste 22 Sur 0 -- -- 39
2018-09-19 16:00:00 32.9 16 Sur 28 Sur 0 -- -- 37
2018-09-19 15:00:00 31.9 6 Nordeste 14 Este 0 -- -- 38
2018-09-19 14:00:00 31.3 4 Nordeste 15 Nordeste 0 -- -- 40
2018-09-19 13:00:00 30.7 3 Norte 11 Sur 0 -- -- 39
2018-09-19 12:00:00 28.4 4 Norte 8 Este 0 -- -- 42
2018-09-19 11:00:00 25.7 3 Sudoeste 10 Sudoeste 0 -- -- 53
2018-09-19 10:00:00 22.1 4 Oeste 9 Noroeste 0 -- -- 67
2018-09-19 09:00:00 19.7 6 Oeste 10 Oeste 0 -- -- 73
2018-09-19 08:00:00 19.6 5 Oeste 10 Oeste 0 -- -- 71
2018-09-19 07:00:00 19.8 2 Sudoeste 9 Oeste 0 -- -- 68
2018-09-19 06:00:00 20 4 Oeste 17 Noroeste 0 -- -- 66
2018-09-19 05:00:00 20.4 12 Noroeste 17 Noroeste 0 -- -- 65
2018-09-19 04:00:00 20.9 10 Noroeste 18 Noroeste 0 -- -- 62
2018-09-19 03:00:00 21.8 12 Noroeste 21 Noroeste 0 -- -- 59
2018-09-19 02:00:00 22.7 12 Noroeste 19 Noroeste 0 -- -- 57
2018-09-19 01:00:00 23.5 12 Noroeste 20 Noroeste 0 -- -- 55
2018-09-19 00:00:00 24.3 11 Noroeste 18 Noroeste 0 -- -- 51
2018-09-18 23:00:00 26.1 9 Noroeste 18 Noroeste 0 -- -- 46
2018-09-18 22:00:00 27.2 9 Noroeste 22 Noroeste 0 -- -- 45
2018-09-18 21:00:00 27.3 10 Sudoeste 20 Sudoeste 0 -- -- 52
2018-09-18 20:00:00 29.3 15 Sudoeste 26 Sudoeste 0 -- -- 48
2018-09-18 19:00:00 32.3 11 Oeste 24 Noroeste 0 -- -- 31
2018-09-18 18:00:00 32.6 9 Norte 28 Noroeste 0 -- -- 32
2018-09-18 17:00:00 32.4 7 Norte 19 Noroeste 0 -- -- 32
2018-09-18 16:00:00 32 9 Noroeste 20 Norte 0 -- -- 34
2018-09-18 15:00:00 31.4 11 Noroeste 19 Oeste 0 -- -- 36
2018-09-18 14:00:00 29.9 8 Noroeste 19 Oeste 0 -- -- 37
2018-09-18 13:00:00 28.8 8 Noroeste 17 Noroeste 0 -- -- 37
2018-09-18 12:00:00 26.1 5 Noroeste 9 Norte 0 -- -- 45
2018-09-18 11:00:00 23 4 Noroeste 10 Noroeste 0 -- -- 61
2018-09-18 10:00:00 20 4 Noroeste 9 Noroeste 0 -- -- 73
2018-09-18 09:00:00 18.1 5 Oeste 12 Oeste 0 -- -- 83
2018-09-18 08:00:00 17.9 5 Oeste 12 Noroeste 0 -- -- 88
2018-09-18 07:00:00 18.9 6 Noroeste 12 Oeste 0 -- -- 81
2018-09-18 06:00:00 19.4 6 Oeste 12 Oeste 0 -- -- 81
2018-09-18 05:00:00 19.6 6 Noroeste 15 Noroeste 0 -- -- 83
2018-09-18 04:00:00 20.2 5 Noroeste 13 Noroeste 0 -- -- 85
2018-09-18 03:00:00 20.9 3 Oeste 14 Noroeste 0 -- -- 80
2018-09-18 02:00:00 21.4 8 Noroeste 16 Noroeste 0 -- -- 76
2018-09-18 01:00:00 22.3 9 Noroeste 17 Noroeste 0 -- -- 72
2018-09-18 00:00:00 23.2 9 Noroeste 13 Noroeste 0 -- -- 68
2018-09-17 23:00:00 24.2 6 Sudoeste 10 Oeste 0 -- -- 65
2018-09-17 22:00:00 24.1 5 Noroeste 13 Norte 0 -- -- 64
2018-09-17 21:00:00 25.2 4 Nordeste 15 Nordeste 0 -- -- 60
2018-09-17 20:00:00 26.2 15 Nordeste 28 Nordeste 0 -- -- 58
2018-09-17 19:00:00 29.4 12 Sudoeste 28 Sudoeste 0 -- -- 50
2018-09-17 18:00:00 29.4 19 Sudoeste 38 Sur 0 -- -- 51
2018-09-17 17:00:00 31.4 17 Sur 30 Sur 0 -- -- 46
2018-09-17 16:00:00 32.1 7 Norte 19 Sudoeste 0 -- -- 42
2018-09-17 15:00:00 31.7 8 Este 18 Este 0 -- -- 43
2018-09-17 14:00:00 31.1 11 Sur 20 Sur 0 -- -- 45
2018-09-17 13:00:00 29.6 6 Este 13 Este 0 -- -- 49
2018-09-17 12:00:00 28.8 5 Sur 8 Sudeste 0 -- -- 51
2018-09-17 11:00:00 25.8 0 Calma 8 Este 0 -- -- 60
2018-09-17 10:00:00 23.2 5 Nordeste 8 Nordeste 0 -- -- 68
2018-09-17 09:00:00 20.5 3 Este 8 Este 0 -- -- 79
2018-09-17 08:00:00 19.4 4 Norte 10 Nordeste 0 -- -- 81
2018-09-17 07:00:00 20.7 4 Nordeste 6 Este 0 -- -- 76
2018-09-17 06:00:00 20.9 3 Sudoeste 5 Sudoeste 0 -- -- 70
2018-09-17 05:00:00 20.8 4 Sudoeste 8 Sudoeste 0 -- -- 73
2018-09-17 04:00:00 20.9 3 Oeste 8 Oeste 0 -- -- 73
2018-09-17 03:00:00 21.3 4 Sudoeste 13 Noroeste 0 -- -- 72
2018-09-17 02:00:00 21.8 9 Noroeste 18 Noroeste 0 -- -- 70
2018-09-17 01:00:00 22.7 10 Oeste 18 Noroeste 0 -- -- 67
2018-09-17 00:00:00 23.9 13 Noroeste 20 Oeste 0 -- -- 64
2018-09-16 23:00:00 25.2 5 Oeste 8 Oeste 0 -- -- 60
2018-09-16 22:00:00 25.9 3 Sudoeste 14 Sudoeste 0 -- -- 59
2018-09-16 21:00:00 27.3 11 Sudoeste 16 Sur 0 -- -- 55
2018-09-16 20:00:00 29.3 10 Sur 20 Sudeste 0 -- -- 46
2018-09-16 19:00:00 31.1 9 Sudeste 21 Sudeste 0 -- -- 41
2018-09-16 18:00:00 30.8 8 Sur 20 Este 0 -- -- 41
2018-09-16 17:00:00 30.4 11 Nordeste 24 Este 0 -- -- 43
2018-09-16 16:00:00 30.8 9 Nordeste 23 Este 0 -- -- 43
2018-09-16 15:00:00 30.3 6 Sudeste 23 Este 0 -- -- 46
2018-09-16 14:00:00 29.2 8 Este 24 Sudeste 0 -- -- 51
2018-09-16 13:00:00 27.6 9 Sudeste 23 Este 0 -- -- 54
2018-09-16 12:00:00 25.9 9 Este 18 Este 0 -- -- 62
2018-09-16 11:00:00 24.2 9 Este 16 Este 0 -- -- 70
2018-09-16 10:00:00 22 7 Este 12 Este 0 -- -- 77
2018-09-16 09:00:00 19.8 6 Este 11 Nordeste 0 -- -- 86
2018-09-16 08:00:00 18.6 5 Nordeste 9 Nordeste 0 -- -- 92
2018-09-16 07:00:00 18.8 7 Este 12 Este 0 -- -- 91
2018-09-16 06:00:00 19.3 9 Este 22 Sudeste 0 -- -- 88
2018-09-16 05:00:00 19.9 15 Sudeste 20 Sudeste 0 -- -- 84
2018-09-16 04:00:00 20.4 12 Sudeste 28 Sudeste 0 -- -- 82
2018-09-16 03:00:00 20.4 14 Sudeste 23 Sudeste 0 -- -- 89
2018-09-16 02:00:00 20.6 9 Este 15 Este 0 -- -- 87
2018-09-16 01:00:00 21 8 Sur 22 Sur 0 -- -- 84
2018-09-16 00:00:00 21.3 20 Sur 27 Sur 0 -- -- 81
2018-09-15 23:00:00 22.4 10 Sudeste 24 Sudeste 0 -- -- 75
2018-09-15 22:00:00 22.7 6 Este 12 Sur 0.2 -- -- 84
2018-09-15 21:00:00 21.7 3 Sudoeste 41 Oeste 4.8 -- -- 86
2018-09-15 20:00:00 29.8 10 Noroeste 24 Norte 0 -- -- 44
2018-09-15 19:00:00 30.5 13 Noroeste 27 Noroeste 0 -- -- 42
2018-09-15 18:00:00 30.4 14 Norte 22 Norte 0 -- -- 43
2018-09-15 17:00:00 30.9 8 Noroeste 18 Noroeste 0 -- -- 42
2018-09-15 16:00:00 30.1 6 Nordeste 22 Noroeste 0 -- -- 43
2018-09-15 15:00:00 29 8 Norte 15 Noroeste 0 -- -- 44
2018-09-15 14:00:00 28.2 6 Noroeste 13 Noroeste 0 -- -- 46
2018-09-15 13:00:00 26 6 Nordeste 10 Norte 0 -- -- 56
2018-09-15 12:00:00 24 6 Norte 13 Norte 0 -- -- 69
2018-09-15 11:00:00 21.6 8 Noroeste 16 Noroeste 0 -- -- 78
2018-09-15 10:00:00 19.6 0 Calma 6 Este 0 -- -- 86
2018-09-15 09:00:00 18.6 6 Nordeste 10 Nordeste 0 -- -- 90
2018-09-15 08:00:00 19 8 Este 13 Nordeste 0 -- -- 87
2018-09-15 07:00:00 19.4 7 Este 10 Este 0 -- -- 82
2018-09-15 06:00:00 19.5 2 Nordeste 8 Este 0 -- -- 83
2018-09-15 05:00:00 19.2 0 Calma 11 Noroeste 0 -- -- 82
2018-09-15 04:00:00 19.7 3 Norte 9 Sudoeste 0 -- -- 80
2018-09-15 03:00:00 20 9 Sudoeste 16 Oeste 0 -- -- 74
2018-09-15 02:00:00 19.7 7 Sudoeste 20 Sudoeste 0 -- -- 80
2018-09-15 01:00:00 19.9 7 Nordeste 22 Nordeste 0 -- -- 80
2018-09-15 00:00:00 19.7 9 Nordeste 29 Nordeste 0.2 -- -- 82
2018-09-14 23:00:00 20.2 20 Nordeste 31 Nordeste 0.2 -- -- 80
2018-09-14 22:00:00 21.9 19 Nordeste 31 Nordeste 0.2 -- -- 73
2018-09-14 21:00:00 22.1 18 Nordeste 31 Nordeste 0 -- -- 80
2018-09-14 20:00:00 22 13 Este 64 Sur 6.2 -- -- 78
2018-09-14 19:00:00 27.8 9 Sudoeste 18 Sur 0 -- -- 49
2018-09-14 18:00:00 29.4 21 Sur 45 Sur 0 -- -- 46
2018-09-14 17:00:00 30.4 26 Sur 40 Sudoeste 0 -- -- 43
2018-09-14 16:00:00 32.1 12 Sur 26 Sur 0 -- -- 43
2018-09-14 15:00:00 30.7 5 Sur 12 Sudeste 0 -- -- 44
2018-09-14 14:00:00 29.6 5 Sudeste 13 Norte 0 -- -- 44
2018-09-14 13:00:00 26.6 7 Noroeste 12 Norte 0 -- -- 62
2018-09-14 12:00:00 23.9 4 Norte 12 Noroeste 0 -- -- 73
2018-09-14 11:00:00 21.8 3 Norte 8 Norte 0 -- -- 83
2018-09-14 10:00:00 19.6 5 Sur 14 Sur 0 -- -- 93
2018-09-14 09:00:00 19.1 7 Sur 16 Sur 0 -- -- 96
2018-09-14 08:00:00 18.9 5 Sudeste 12 Sur 0 -- -- 97
2018-09-14 07:00:00 19.1 5 Sur 10 Sur 0 -- -- 98
2018-09-14 06:00:00 19.2 2 Sur 5 Sur 0 -- -- 98
2018-09-14 05:00:00 19.2 0 Calma 4 Sudeste 0 -- -- 98
2018-09-14 04:00:00 19.2 3 Sudoeste 6 Sudoeste 0 -- -- 98
2018-09-14 03:00:00 19.6 0 Calma 6 Nordeste 0 -- -- 98
2018-09-14 02:00:00 19.9 4 Nordeste 7 Este 0 -- -- 95
2018-09-14 01:00:00 20.8 3 Nordeste 12 Sur 0 -- -- 92
2018-09-14 00:00:00 20.6 7 Sur 20 Sur 0 -- -- 94
2018-09-13 23:00:00 21.6 11 Sur 23 Sur 0 -- -- 87
2018-09-13 22:00:00 22.8 11 Sudoeste 26 Sur 0 -- -- 78
2018-09-13 21:00:00 24 16 Sur 25 Sur 0 -- -- 71
2018-09-13 20:00:00 25.6 18 Sur 24 Sur 0 -- -- 66
2018-09-13 19:00:00 27.5 17 Sur 22 Sur 0 -- -- 63
2018-09-13 18:00:00 28.9 13 Sur 19 Sur 0 -- -- 52
2018-09-13 17:00:00 30.6 10 Sur 27 Sudoeste 0 -- -- 45
2018-09-13 16:00:00 30.5 14 Sudoeste 32 Sur 0 -- -- 53
2018-09-13 15:00:00 30.7 16 Sur 30 Sur 0 -- -- 49
2018-09-13 14:00:00 29 6 Sudoeste 16 Sudoeste 0 -- -- 55
2018-09-13 13:00:00 26.7 7 Sur 15 Sur 0 -- -- 65
2018-09-13 12:00:00 24.5 5 Sur 16 Sur 0 -- -- 75
2018-09-13 11:00:00 21.2 10 Sur 17 Sur 0 -- -- 92
2018-09-13 10:00:00 22.1 5 Este 9 Sudeste 0 -- -- 89
2018-09-13 09:00:00 20.3 3 Este 6 Nordeste 0 -- -- 97
2018-09-13 08:00:00 20 0 Calma 5 Noroeste 0 -- -- 95
2018-09-13 07:00:00 20.2 2 Oeste 4 Oeste 0 -- -- 96
2018-09-13 06:00:00 20 0 Calma 5 Oeste 0 -- -- 97
2018-09-13 05:00:00 20.1 2 Sudoeste 5 Este 0 -- -- 98
2018-09-13 04:00:00 20.1 4 Sur 10 Sur 0 -- -- 97
2018-09-13 03:00:00 20.5 3 Nordeste 9 Sur 0 -- -- 96
2018-09-13 02:00:00 20.6 6 Sur 16 Sur 0 -- -- 96
2018-09-13 01:00:00 21 8 Sudoeste 17 Sur 0 -- -- 95
2018-09-13 00:00:00 21.4 13 Sur 22 Sur 0 -- -- 94
2018-09-12 23:00:00 22.9 13 Sur 21 Sur 0 -- -- 85
2018-09-12 22:00:00 25.1 10 Oeste 18 Noroeste 0 -- -- 67
2018-09-12 21:00:00 26.5 12 Sur 24 Sur 0 -- -- 60
2018-09-12 20:00:00 28 17 Sur 31 Sur 0 -- -- 58
2018-09-12 19:00:00 29.8 23 Sur 37 Sudoeste 0 -- -- 53
2018-09-12 18:00:00 31.2 24 Sur 37 Sur 0 -- -- 49
2018-09-12 17:00:00 32.7 19 Sur 32 Sur 0 -- -- 44
2018-09-12 16:00:00 33 9 Sur 26 Sur 0 -- -- 39
2018-09-12 15:00:00 32.3 9 Sudeste 22 Sur 0 -- -- 41
2018-09-12 14:00:00 31.7 9 Sudeste 22 Sur 0 -- -- 44
2018-09-12 13:00:00 30.3 8 Sur 23 Sudeste 0 -- -- 48
2018-09-12 12:00:00 29 10 Sur 21 Sur 0 -- -- 53
2018-09-12 11:00:00 27.4 10 Sur 17 Sudeste 0 -- -- 58
2018-09-12 10:00:00 25.4 10 Sur 15 Sudeste 0 -- -- 66
2018-09-12 09:00:00 21.8 3 Este 9 Nordeste 0 -- -- 75
2018-09-12 08:00:00 20.8 4 Sudeste 10 Este 0 -- -- 76
2018-09-12 07:00:00 20.6 7 Este 9 Este 0 -- -- 75
2018-09-12 06:00:00 21 4 Este 8 Nordeste 0 -- -- 72
2018-09-12 05:00:00 22 2 Nordeste 8 Oeste 0 -- -- 67
2018-09-12 04:00:00 22.4 5 Oeste 6 Oeste 0 -- -- 65
2018-09-12 03:00:00 22.5 4 Oeste 10 Noroeste 0 -- -- 65
2018-09-12 02:00:00 23.1 5 Oeste 6 Oeste 0 -- -- 65
2018-09-12 01:00:00 23.5 4 Oeste 18 Sudoeste 0 -- -- 68
2018-09-12 00:00:00 24.6 13 Sudoeste 22 Sudoeste 0 -- -- 68
2018-09-11 23:00:00 25.1 15 Sudoeste 23 Sudoeste 0 -- -- 65
2018-09-11 22:00:00 25.7 15 Sudoeste 23 Sudoeste 0 -- -- 59
2018-09-11 21:00:00 27.4 13 Sudoeste 25 Sudoeste 0 -- -- 52
2018-09-11 20:00:00 30.3 17 Sur 28 Sudoeste 0 -- -- 45
2018-09-11 19:00:00 31.5 10 Sudeste 28 Este 0 -- -- 38
2018-09-11 18:00:00 32.1 15 Sudeste 32 Sudeste 0 -- -- 38
2018-09-11 17:00:00 32.6 12 Sudeste 32 Este 0 -- -- 38
2018-09-11 16:00:00 32 12 Sudeste 31 Sudeste 0 -- -- 38
2018-09-11 15:00:00 31 14 Sudeste 31 Este 0 -- -- 41
2018-09-11 14:00:00 30.6 16 Este 37 Sudeste 0 -- -- 43
2018-09-11 13:00:00 29.5 15 Este 30 Este 0 -- -- 47
2018-09-11 12:00:00 28.1 12 Este 21 Este 0 -- -- 50
2018-09-11 11:00:00 26.1 7 Este 15 Nordeste 0 -- -- 54
2018-09-11 10:00:00 23.9 4 Nordeste 8 Este 0 -- -- 63
2018-09-11 09:00:00 21.2 3 Norte 8 Norte 0 -- -- 70
2018-09-11 08:00:00 20.1 5 Nordeste 8 Este 0 -- -- 72
2018-09-11 07:00:00 20.1 6 Este 8 Este 0 -- -- 72
2018-09-11 06:00:00 20.2 4 Nordeste 6 Norte 0 -- -- 69
2018-09-11 05:00:00 20.7 4 Nordeste 6 Nordeste 0 -- -- 68
2018-09-11 04:00:00 21.5 5 Sudoeste 17 Sudoeste 0 -- -- 76
2018-09-11 03:00:00 22.3 15 Sudoeste 21 Sur 0 -- -- 69
2018-09-11 02:00:00 22.8 15 Sudoeste 26 Sur 0 -- -- 64
2018-09-11 01:00:00 23.9 18 Sur 24 Sur 0 -- -- 52
2018-09-11 00:00:00 25.4 19 Sur 26 Sur 0 -- -- 43
2018-09-10 23:00:00 26.3 10 Nordeste 15 Nordeste 0 -- -- 39
2018-09-10 22:00:00 27.4 9 Nordeste 18 Nordeste 0 -- -- 36
2018-09-10 21:00:00 28.8 11 Nordeste 24 Este 0 -- -- 33
2018-09-10 20:00:00 31.1 15 Nordeste 33 Nordeste 0 -- -- 28
2018-09-10 19:00:00 32.1 15 Este 36 Nordeste 0 -- -- 26
2018-09-10 18:00:00 32.8 16 Este 32 Este 0 -- -- 27
2018-09-10 17:00:00 32.5 14 Este 31 Este 0 -- -- 29
2018-09-10 16:00:00 31.1 18 Nordeste 29 Este 0 -- -- 32
2018-09-10 15:00:00 31.8 18 Este 35 Este 0 -- -- 32
2018-09-10 14:00:00 30.2 18 Nordeste 32 Este 0 -- -- 35
2018-09-10 13:00:00 28.5 12 Nordeste 23 Este 0 -- -- 40
2018-09-10 12:00:00 26.8 8 Nordeste 18 Este 0 -- -- 51
2018-09-10 11:00:00 24.4 12 Nordeste 18 Este 0 -- -- 61
2018-09-10 10:00:00 22.6 5 Este 9 Nordeste 0 -- -- 74
2018-09-10 09:00:00 20 3 Este 14 Este 0 -- -- 80
2018-09-10 08:00:00 19 7 Este 13 Este 0 -- -- 83
2018-09-10 07:00:00 19.6 8 Este 11 Este 0 -- -- 80
2018-09-10 06:00:00 19.2 6 Nordeste 13 Este 0 -- -- 81
2018-09-10 05:00:00 19.2 5 Este 8 Este 0 -- -- 81
2018-09-10 04:00:00 19.7 4 Este 8 Este 0 -- -- 79
2018-09-10 03:00:00 20 3 Nordeste 6 Norte 0 -- -- 81
2018-09-10 02:00:00 19.5 3 Oeste 11 Noroeste 0 -- -- 82
2018-09-10 01:00:00 19.3 10 Noroeste 22 Noroeste 0 -- -- 86
2018-09-10 00:00:00 20.1 3 Sur 10 Sudoeste 0 -- -- 77
2018-09-09 23:00:00 20.3 5 Este 24 Noroeste 0 -- -- 83
2018-09-09 22:00:00 21 4 Oeste 9 Noroeste 0 -- -- 73
2018-09-09 21:00:00 20.3 6 Nordeste 15 Noroeste -- -- -- 84
2018-09-09 20:00:00 20.3 4 Noroeste 31 Este 9.8 -- -- 86
2018-09-09 19:00:00 23.6 28 Nordeste 50 Nordeste 0 -- -- 58
2018-09-09 18:00:00 30.3 7 Oeste 14 Sudoeste 0 -- -- 41
2018-09-09 17:00:00 27.4 7 Sudeste 24 Este 0 -- -- 44
2018-09-09 16:00:00 27.7 13 Nordeste 24 Nordeste 0 -- -- 48
2018-09-09 15:00:00 27.9 12 Este 18 Sudeste 0 -- -- 47
2018-09-09 14:00:00 27.2 7 Norte 14 Oeste 0 -- -- 50
2018-09-09 13:00:00 24.7 5 Nordeste 16 Nordeste 0 -- -- 55
2018-09-09 12:00:00 23.6 8 Nordeste 14 Nordeste 0 -- -- 57
2018-09-09 11:00:00 21.7 0 Calma 6 Este 0 -- -- 64
2018-09-09 10:00:00 19.8 2 Norte 3 Norte 0 -- -- 69
2018-09-09 09:00:00 18 0 Calma 7 Noroeste 0 -- -- 79
2018-09-09 08:00:00 17.2 6 Noroeste 13 Noroeste 0 -- -- 84
2018-09-09 07:00:00 16.6 6 Noroeste 13 Noroeste 0 -- -- 86
2018-09-09 06:00:00 17.7 4 Norte 10 Noroeste 0 -- -- 82
2018-09-09 05:00:00 18 8 Noroeste 19 Noroeste 0 -- -- 81
2018-09-09 04:00:00 18.2 13 Noroeste 21 Noroeste 0 -- -- 79
2018-09-09 03:00:00 18.4 13 Noroeste 22 Noroeste 0 -- -- 76
2018-09-09 02:00:00 18.7 9 Noroeste 14 Noroeste 0 -- -- 75
2018-09-09 01:00:00 19.4 9 Noroeste 18 Oeste 0 -- -- 72
2018-09-09 00:00:00 18.7 9 Oeste 12 Oeste 0 -- -- 80
2018-09-08 23:00:00 18.6 8 Sudoeste 23 Sudoeste 0 -- -- 81
2018-09-08 22:00:00 19.6 15 Sur 21 Sudoeste 0 -- -- 72
2018-09-08 21:00:00 21.1 16 Sur 28 Sur 0 -- -- 62
2018-09-08 20:00:00 23.3 22 Sur 32 Sur 0 -- -- 54
2018-09-08 19:00:00 25.3 19 Sur 35 Sudoeste 0 -- -- 47
2018-09-08 18:00:00 27.1 15 Sudoeste 28 Sur 0 -- -- 39
2018-09-08 17:00:00 27.3 13 Sudeste 27 Sudeste 0 -- -- 36
2018-09-08 16:00:00 27.6 12 Sudoeste 25 Sudoeste 0 -- -- 36
2018-09-08 15:00:00 26.7 12 Sudoeste 27 Sudoeste 0 -- -- 39
2018-09-08 14:00:00 25.7 10 Sudeste 27 Sur 0 -- -- 41
2018-09-08 13:00:00 24.7 9 Sudoeste 21 Oeste 0 -- -- 47
2018-09-08 12:00:00 23.1 8 Sur 19 Sur 0 -- -- 49
2018-09-08 11:00:00 21.4 7 Sudoeste 13 Sudoeste 0 -- -- 60
2018-09-08 10:00:00 19.2 7 Sur 11 Sur 0 -- -- 72
2018-09-08 09:00:00 15.9 2 Sudeste 4 Este 0 -- -- 88
2018-09-08 08:00:00 15.5 0 Calma 2 Noroeste 0 -- -- 89
2018-09-08 07:00:00 15.6 0 Calma 3 Noroeste 0 -- -- 90
2018-09-08 06:00:00 15.7 0 Calma 6 Oeste 0 -- -- 89
2018-09-08 05:00:00 15.9 3 Oeste 5 Oeste 0 -- -- 88
2018-09-08 04:00:00 15.9 3 Oeste 12 Noroeste 0 -- -- 87
2018-09-08 03:00:00 16.2 8 Noroeste 14 Oeste 0 -- -- 85
2018-09-08 02:00:00 17 11 Noroeste 15 Oeste 0 -- -- 82
2018-09-08 01:00:00 18 6 Oeste 22 Sur 0 -- -- 80
2018-09-08 00:00:00 18.5 11 Sudoeste 21 Sur 0 -- -- 78
2018-09-07 23:00:00 19 14 Sur 20 Sur 0 -- -- 75
2018-09-07 22:00:00 19.5 7 Sudoeste 17 Sudoeste 0 -- -- 70
2018-09-07 21:00:00 20.5 13 Sudoeste 21 Sur 0 -- -- 64
2018-09-07 20:00:00 22.4 15 Sur 23 Sudoeste 0 -- -- 57
2018-09-07 19:00:00 23.6 17 Sudoeste 26 Sur 0 -- -- 56
2018-09-07 18:00:00 25.1 16 Sur 29 Sur 0 -- -- 49
2018-09-07 17:00:00 26 17 Sur 37 Sur 0 -- -- 46
2018-09-07 16:00:00 25.1 21 Sur 42 Sur 0 -- -- 53
2018-09-07 15:00:00 24.5 19 Sur 35 Sur 0 -- -- 57
2018-09-07 14:00:00 23.9 12 Sur 30 Este 0 -- -- 60
2018-09-07 13:00:00 22.5 12 Sudeste 28 Sur 0 -- -- 64
2018-09-07 12:00:00 21.3 11 Sudeste 24 Este 0 -- -- 71
2018-09-07 11:00:00 19.7 13 Este 23 Este 0 -- -- 82
2018-09-07 10:00:00 17.9 7 Este 13 Este 0 -- -- 89
2018-09-07 09:00:00 16.7 5 Este 11 Sudeste 0 -- -- 92
2018-09-07 08:00:00 16 4 Nordeste 7 Noroeste 0 -- -- 91
2018-09-07 07:00:00 15.6 3 Noroeste 5 Oeste 0 -- -- 92
2018-09-07 06:00:00 15.2 0 Calma 7 Norte 0 -- -- 92
2018-09-07 05:00:00 15.6 4 Noroeste 10 Noroeste 0 -- -- 89
2018-09-07 04:00:00 16.1 6 Noroeste 12 Noroeste 0 -- -- 87
2018-09-07 03:00:00 16.8 5 Noroeste 12 Noroeste 0 -- -- 82
2018-09-07 02:00:00 17.6 5 Noroeste 13 Noroeste 0 -- -- 75
2018-09-07 01:00:00 18.6 8 Oeste 13 Noroeste 0 -- -- 71
2018-09-07 00:00:00 19.8 5 Oeste 10 Oeste 0 -- -- 67
2018-09-06 23:00:00 20 5 Este 22 Sudoeste 0 -- -- 64
2018-09-06 22:00:00 20.8 17 Sudoeste 28 Sur 0 -- -- 63
2018-09-06 21:00:00 21.8 24 Sur 34 Sur 0 -- -- 62
2018-09-06 20:00:00 24.6 21 Sudoeste 32 Sur 0 -- -- 55
2018-09-06 19:00:00 26.5 24 Sur 38 Sudoeste 0 -- -- 50
2018-09-06 18:00:00 28 23 Sur 36 Sur 0 -- -- 45
2018-09-06 17:00:00 28.9 8 Oeste 19 Oeste 0 -- -- 32
2018-09-06 16:00:00 28.2 8 Noroeste 21 Oeste 0 -- -- 33
2018-09-06 15:00:00 27.6 5 Oeste 20 Oeste 0 -- -- 38
2018-09-06 14:00:00 26 9 Sudoeste 22 Sudoeste 0 -- -- 44
2018-09-06 13:00:00 24.4 5 Oeste 17 Oeste 0 -- -- 52
2018-09-06 12:00:00 21.9 7 Noroeste 19 Noroeste 0 -- -- 60
2018-09-06 11:00:00 19.8 12 Noroeste 22 Noroeste 0 -- -- 71
2018-09-06 10:00:00 17.8 15 Noroeste 23 Noroeste 0 -- -- 79
2018-09-06 09:00:00 16.7 9 Noroeste 20 Noroeste 0 -- -- 86
2018-09-06 08:00:00 16.6 10 Noroeste 22 Noroeste 0 -- -- 88
2018-09-06 07:00:00 16.3 13 Norte 24 Noroeste 0 -- -- 93
2018-09-06 06:00:00 16.3 14 Noroeste 24 Noroeste 0 -- -- 94
2018-09-06 05:00:00 16.4 14 Noroeste 22 Noroeste 0 -- -- 93
2018-09-06 04:00:00 16.4 12 Noroeste 24 Noroeste 0 -- -- 93
2018-09-06 03:00:00 16.7 18 Noroeste 26 Noroeste 0 -- -- 89
2018-09-06 02:00:00 17.4 15 Noroeste 25 Noroeste 0 -- -- 85
2018-09-06 01:00:00 18.4 15 Noroeste 28 Noroeste 0 -- -- 78
2018-09-06 00:00:00 19.5 14 Noroeste 27 Noroeste 0 -- -- 73
2018-09-05 23:00:00 21 14 Noroeste 25 Noroeste 0 -- -- 67
2018-09-05 22:00:00 21.6 8 Sudoeste 19 Sudoeste 0 -- -- 75
2018-09-05 21:00:00 22.8 13 Sudoeste 27 Sur 0 -- -- 69
2018-09-05 20:00:00 24.1 19 Sudoeste 26 Sur 0 -- -- 59
2018-09-05 19:00:00 26.5 17 Sur 26 Sudoeste 0 -- -- 52
2018-09-05 18:00:00 26.6 19 Sudoeste 32 Sudeste 0 -- -- 52
2018-09-05 17:00:00 25 12 Sudeste 23 Sur 0 -- -- 58
2018-09-05 16:00:00 26 12 Sur 22 Sur 0 -- -- 54
2018-09-05 15:00:00 25.5 10 Sur 20 Sur 0 -- -- 53
2018-09-05 14:00:00 25.5 8 Sudoeste 21 Oeste 0 -- -- 53
2018-09-05 13:00:00 24.5 4 Sudoeste 15 Sudoeste 0 -- -- 56
2018-09-05 12:00:00 22.3 8 Sur 13 Sur 0 -- -- 67
2018-09-05 11:00:00 21.6 4 Sur 11 Sudoeste 0 -- -- 72
2018-09-05 10:00:00 20.1 2 Norte 8 Sudoeste 0 -- -- 79
2018-09-05 09:00:00 19.4 2 Sudoeste 3 Sudoeste 0 -- -- 83
2018-09-05 08:00:00 19.1 0 Calma 4 Noroeste 0 -- -- 82
2018-09-05 07:00:00 19.1 2 Oeste 4 Oeste 0 -- -- 82
2018-09-05 06:00:00 19.1 0 Calma 6 Sudoeste 0 -- -- 80
2018-09-05 05:00:00 19 0 Calma 6 Oeste 0 -- -- 80
2018-09-05 04:00:00 18.9 6 Oeste 7 Oeste 0 -- -- 80
2018-09-05 03:00:00 18.5 6 Sudoeste 9 Sudoeste 0 -- -- 82
2018-09-05 02:00:00 18.6 6 Sudoeste 12 Sudoeste 0 -- -- 82
2018-09-05 01:00:00 19 6 Sudoeste 17 Sur 0 -- -- 78
2018-09-05 00:00:00 19.5 10 Sudoeste 16 Sur 0 -- -- 80
2018-09-04 23:00:00 19.9 9 Sudoeste 22 Sur 0 -- -- 80
2018-09-04 22:00:00 20.5 18 Sur 27 Sudoeste 0 -- -- 75
2018-09-04 21:00:00 21.6 19 Sudoeste 30 Sur 0 -- -- 69
2018-09-04 20:00:00 23.8 18 Sudoeste 27 Sur 0 -- -- 58
2018-09-04 19:00:00 25.4 13 Sudoeste 26 Sudoeste 0 -- -- 54
2018-09-04 18:00:00 25.4 14 Sur 27 Sur 0 -- -- 53
2018-09-04 17:00:00 25 16 Sudoeste 30 Sur 0 -- -- 53
2018-09-04 16:00:00 24.8 9 Sudoeste 28 Sudoeste 0 -- -- 52
2018-09-04 15:00:00 24.6 16 Sudoeste 24 Sudoeste 0 -- -- 54
2018-09-04 14:00:00 23.5 11 Sur 23 Sur 0 -- -- 56
2018-09-04 13:00:00 22.6 6 Sudoeste 15 Sudoeste 0 -- -- 60
2018-09-04 12:00:00 21.3 4 Sur 17 Sur 0 -- -- 64
2018-09-04 11:00:00 20.5 6 Sur 10 Sur 0 -- -- 75
2018-09-04 10:00:00 18.9 5 Este 8 Este 0 -- -- 84
2018-09-04 09:00:00 18 4 Nordeste 9 Nordeste 0 -- -- 86
2018-09-04 08:00:00 18 3 Noroeste 5 Norte 0 -- -- 85
2018-09-04 07:00:00 18.1 3 Norte 7 Nordeste 0 -- -- 83
2018-09-04 06:00:00 17.9 0 Calma 6 Noroeste 0 -- -- 82
2018-09-04 05:00:00 17.8 4 Oeste 5 Oeste 0 -- -- 81
2018-09-04 04:00:00 17.7 0 Calma 9 Norte 0 -- -- 82
2018-09-04 03:00:00 17.9 6 Norte 12 Norte 0 -- -- 84
2018-09-04 02:00:00 17.9 7 Noroeste 14 Noroeste 0 -- -- 86
2018-09-04 01:00:00 18.9 12 Noroeste 21 Noroeste 0 -- -- 74
2018-09-04 00:00:00 19.1 6 Sudoeste 19 Sur 0 -- -- 79
2018-09-03 23:00:00 19.6 13 Sur 21 Sur 0 -- -- 78
2018-09-03 22:00:00 20.2 16 Sur 28 Sur 0 -- -- 79
2018-09-03 21:00:00 21.5 19 Sur 31 Sur 0 -- -- 72
2018-09-03 20:00:00 23.1 21 Sur 32 Sur 0 -- -- 67
2018-09-03 19:00:00 25 22 Sur 31 Sur 0 -- -- 62
2018-09-03 18:00:00 25.9 14 Sur 28 Sudoeste 0 -- -- 58
2018-09-03 17:00:00 26.1 17 Sur 30 Sur 0 -- -- 57
2018-09-03 16:00:00 26.3 13 Sur 31 Sudoeste 0 -- -- 57
2018-09-03 15:00:00 24.8 14 Sur 29 Sur 0 -- -- 61
2018-09-03 14:00:00 25 14 Sur 28 Sur 0 -- -- 62
2018-09-03 13:00:00 23.8 10 Sudeste 19 Sur 0 -- -- 64
2018-09-03 12:00:00 22.2 6 Sur 16 Sur 0 -- -- 72
2018-09-03 11:00:00 21.5 7 Sudeste 17 Sur 0 -- -- 75
2018-09-03 10:00:00 19.8 10 Sur 19 Sudeste 0 -- -- 87
2018-09-03 09:00:00 18.7 11 Sur 20 Sudeste 0 -- -- 97
2018-09-03 08:00:00 18.9 10 Sur 19 Sur 0 -- -- 97
2018-09-03 07:00:00 19.1 9 Sur 17 Sudeste 0 -- -- 99
2018-09-03 06:00:00 19.6 10 Sur 19 Sur 0 -- -- 99
2018-09-03 05:00:00 19.7 12 Sur 24 Sur 0.2 -- -- 98
2018-09-03 04:00:00 20.2 18 Sur 27 Sur 0 -- -- 97
2018-09-03 03:00:00 20.9 18 Sur 25 Sur 0 -- -- 92
2018-09-03 02:00:00 21.3 8 Sur 16 Sudoeste 0 -- -- 93
2018-09-03 01:00:00 21.5 9 Sur 14 Sur 0 -- -- 95
2018-09-03 00:00:00 22.2 9 Sur 21 Sudeste 0 -- -- 88
2018-09-02 23:00:00 23.4 12 Sudeste 18 Sur 0 -- -- 81
2018-09-02 22:00:00 24.2 8 Sur 24 Sur 0 -- -- 77
2018-09-02 21:00:00 25.5 14 Sur 30 Sur 0 -- -- 72
2018-09-02 20:00:00 27.5 26 Sur 36 Sur 0 -- -- 64
2018-09-02 19:00:00 29.1 28 Sur 42 Sur 0 -- -- 57
2018-09-02 18:00:00 30.7 29 Sur 42 Sur 0 -- -- 50
2018-09-02 17:00:00 32 25 Sudoeste 47 Sudoeste 0 -- -- 46
2018-09-02 16:00:00 33.3 28 Sur 44 Sudoeste 0 -- -- 39
2018-09-02 15:00:00 32.9 19 Sur 37 Sudoeste 0 -- -- 41
2018-09-02 14:00:00 32 21 Sudoeste 35 Sur 0 -- -- 43
2018-09-02 13:00:00 30.9 15 Sur 29 Sudoeste 0 -- -- 45
2018-09-02 12:00:00 29.9 11 Sudeste 22 Este 0 -- -- 47
2018-09-02 11:00:00 27.9 9 Sur 15 Sur 0 -- -- 57
2018-09-02 10:00:00 24.7 4 Nordeste 10 Este 0 -- -- 69
2018-09-02 09:00:00 22.4 7 Este 10 Nordeste 0 -- -- 78
2018-09-02 08:00:00 21.5 6 Este 11 Nordeste 0 -- -- 81
2018-09-02 07:00:00 22.2 4 Nordeste 7 Nordeste 0 -- -- 81
2018-09-02 06:00:00 22.8 4 Sudoeste 10 Oeste 0 -- -- 77
2018-09-02 05:00:00 22.9 8 Oeste 12 Oeste 0 -- -- 78
2018-09-02 04:00:00 22.9 8 Oeste 12 Oeste 0 -- -- 76
2018-09-02 03:00:00 23.6 0 Calma 6 Sur 0 -- -- 73
2018-09-02 02:00:00 24 0 Calma 9 Sur 0 -- -- 71
2018-09-02 01:00:00 24.4 2 Oeste 4 Sudoeste 0 -- -- 70
2018-09-02 00:00:00 25.1 4 Sur 10 Sudoeste 0 -- -- 69
2018-09-01 23:00:00 25.7 8 Sudoeste 12 Sudoeste 0 -- -- 66
2018-09-01 22:00:00 26.6 10 Sur 24 Sur 0 -- -- 63
2018-09-01 21:00:00 27.9 21 Sur 33 Sudoeste 0 -- -- 58
2018-09-01 20:00:00 30.4 22 Sudoeste 31 Sur 0 -- -- 50
2018-09-01 19:00:00 32.3 22 Sur 33 Sur 0 -- -- 46
2018-09-01 18:00:00 33.4 22 Sur 36 Sur 0 -- -- 43
2018-09-01 17:00:00 34.4 23 Sudoeste 35 Sur 0 -- -- 39
2018-09-01 16:00:00 35 18 Sur 36 Sudoeste 0 -- -- 34
2018-09-01 15:00:00 34.8 18 Sur 37 Sudeste 0 -- -- 33
2018-09-01 14:00:00 33.9 16 Sur 33 Sur 0 -- -- 30
2018-09-01 13:00:00 33.1 14 Sudeste 33 Sur 0 -- -- 34
2018-09-01 12:00:00 31.2 11 Sudeste 23 Este 0 -- -- 42
2018-09-01 11:00:00 28.9 10 Este 18 Este 0 -- -- 46
2018-09-01 10:00:00 26.5 8 Este 12 Este 0 -- -- 53
2018-09-01 09:00:00 23.6 3 Nordeste 7 Este 0 -- -- 64
2018-09-01 08:00:00 22.1 6 Este 7 Este 0 -- -- 67
2018-09-01 07:00:00 22.1 5 Este 7 Este 0 -- -- 67
2018-09-01 06:00:00 22.4 4 Este 8 Nordeste 0 -- -- 67
2018-09-01 05:00:00 23.5 5 Nordeste 6 Nordeste 0 -- -- 64
2018-09-01 04:00:00 23.8 5 Este 12 Este 0 -- -- 62
2018-09-01 03:00:00 24.3 3 Este 11 Sudoeste 0 -- -- 61
2018-09-01 02:00:00 25.6 9 Sudoeste 16 Sudoeste 0 -- -- 54
2018-09-01 01:00:00 25.4 10 Sudoeste 25 Sur 0 -- -- 56
2018-09-01 00:00:00 25.9 20 Sur 32 Sudoeste 0 -- -- 56
2018-08-31 23:00:00 26.1 19 Sudoeste 27 Sudoeste 0 -- -- 55
2018-08-31 22:00:00 27.6 22 Sur 31 Sur 0 -- -- 51
2018-08-31 21:00:00 30.2 21 Sur 26 Sur 0 -- -- 42
2018-08-31 20:00:00 34 19 Sur 26 Sudoeste 0 -- -- 36
2018-08-31 19:00:00 36.6 9 Sur 31 Sur 0 -- -- 27
2018-08-31 18:00:00 36.7 10 Sudeste 28 Este 0 -- -- 22
2018-08-31 17:00:00 36.1 12 Este 29 Este 0 -- -- 26
2018-08-31 16:00:00 36.1 16 Sudeste 27 Sudeste 0 -- -- 26
2018-08-31 15:00:00 35.6 16 Sudeste 34 Este 0 -- -- 26
2018-08-31 14:00:00 35 10 Sur 31 Sur 0 -- -- 30
2018-08-31 13:00:00 33 12 Sudeste 25 Sudeste 0 -- -- 34
2018-08-31 12:00:00 31.5 10 Sudeste 18 Sudeste 0 -- -- 38
2018-08-31 11:00:00 29.1 8 Este 14 Este 0 -- -- 42
2018-08-31 10:00:00 25.9 6 Nordeste 9 Nordeste 0 -- -- 51
2018-08-31 09:00:00 22.6 2 Nordeste 6 Este 0 -- -- 60
2018-08-31 08:00:00 20.7 4 Este 8 Este 0 -- -- 66
2018-08-31 07:00:00 20.6 4 Nordeste 9 Nordeste 0 -- -- 67
2018-08-31 06:00:00 21.6 5 Nordeste 12 Noroeste 0 -- -- 64
2018-08-31 05:00:00 22.4 9 Oeste 18 Sudoeste 0 -- -- 60
2018-08-31 04:00:00 22.5 10 Sudoeste 20 Sur 0 -- -- 60
2018-08-31 03:00:00 23.3 5 Oeste 18 Oeste 0 -- -- 59
2018-08-31 02:00:00 24.1 14 Noroeste 19 Noroeste 0 -- -- 55
2018-08-31 01:00:00 24.8 10 Noroeste 18 Oeste 0 -- -- 51
2018-08-31 00:00:00 26 13 Noroeste 21 Oeste 0 -- -- 47
2018-08-30 23:00:00 26.1 8 Noroeste 13 Noroeste 0 -- -- 46
2018-08-30 22:00:00 27 9 Sudoeste 17 Sur 0 -- -- 45
2018-08-30 21:00:00 28.5 9 Sudoeste 22 Sur 0 -- -- 41
2018-08-30 20:00:00 30.4 15 Sudoeste 26 Sur 0 -- -- 38
2018-08-30 19:00:00 31.8 19 Sudoeste 31 Sudoeste 0 -- -- 37
2018-08-30 18:00:00 32.9 13 Sur 31 Sur 0 -- -- 34
2018-08-30 17:00:00 33.1 15 Sur 31 Sudoeste 0 -- -- 35
2018-08-30 16:00:00 32.9 17 Sur 27 Sur 0 -- -- 39
2018-08-30 15:00:00 32.5 12 Sudoeste 24 Sur 0 -- -- 33
2018-08-30 14:00:00 31 14 Sur 24 Sur 0 -- -- 40
2018-08-30 13:00:00 29.5 7 Sudeste 15 Sudoeste 0 -- -- 43
2018-08-30 12:00:00 27.2 7 Sur 11 Sur 0 -- -- 50
2018-08-30 11:00:00 23.8 5 Este 9 Sudeste 0 -- -- 58
2018-08-30 10:00:00 19.2 5 Noroeste 13 Oeste 0 -- -- 72
2018-08-30 09:00:00 16.6 4 Oeste 15 Oeste 0 -- -- 80
2018-08-30 08:00:00 15.8 7 Oeste 19 Oeste 0 -- -- 82
2018-08-30 07:00:00 16.2 12 Noroeste 24 Noroeste 0 -- -- 78
2018-08-30 06:00:00 17 18 Noroeste 25 Noroeste 0 -- -- 74
2018-08-30 05:00:00 17.6 16 Noroeste 25 Noroeste 0 -- -- 70
2018-08-30 04:00:00 18.7 16 Noroeste 30 Noroeste 0 -- -- 65
2018-08-30 03:00:00 19.6 18 Noroeste 30 Noroeste 0 -- -- 59
2018-08-30 02:00:00 20.8 18 Noroeste 25 Noroeste 0 -- -- 52
2018-08-30 01:00:00 22.4 17 Noroeste 23 Noroeste 0 -- -- 52
2018-08-30 00:00:00 23.9 15 Noroeste 23 Noroeste 0 -- -- 50
2018-08-29 23:00:00 25 10 Noroeste 18 Noroeste 0 -- -- 48
2018-08-29 22:00:00 26.6 9 Noroeste 16 Noroeste 0 -- -- 45
2018-08-29 21:00:00 28.8 10 Norte 23 Noroeste 0 -- -- 37
2018-08-29 20:00:00 30.6 15 Noroeste 24 Noroeste 0 -- -- 34
2018-08-29 19:00:00 31.3 13 Noroeste 33 Noroeste 0 -- -- 33
2018-08-29 18:00:00 31.2 15 Noroeste 28 Noroeste 0 -- -- 35
2018-08-29 17:00:00 30.4 13 Noroeste 26 Oeste 0 -- -- 37
2018-08-29 16:00:00 29.4 14 Noroeste 23 Oeste 0 -- -- 41
2018-08-29 15:00:00 28.1 9 Norte 24 Norte 0 -- -- 45
2018-08-29 14:00:00 26.3 14 Noroeste 30 Noroeste 0 -- -- 50
2018-08-29 13:00:00 23.9 17 Norte 28 Noroeste 0 -- -- 57
2018-08-29 12:00:00 22.2 16 Noroeste 31 Norte 0 -- -- 64
2018-08-29 11:00:00 20.8 18 Noroeste 29 Noroeste 0 -- -- 71
2018-08-29 10:00:00 19.2 19 Noroeste 29 Noroeste 0 -- -- 78
2018-08-29 09:00:00 18.2 15 Noroeste 24 Noroeste 0 -- -- 82
2018-08-29 08:00:00 17.3 12 Noroeste 24 Noroeste 0 -- -- 86
2018-08-29 07:00:00 17.7 16 Noroeste 29 Norte 0 -- -- 85
2018-08-29 06:00:00 17.3 12 Noroeste 24 Noroeste 0 -- -- 87
2018-08-29 05:00:00 17.3 17 Noroeste 31 Noroeste 0 -- -- 88
2018-08-29 04:00:00 18.1 19 Noroeste 31 Noroeste 0 -- -- 86
2018-08-29 03:00:00 18.7 18 Noroeste 29 Noroeste 0 -- -- 83
2018-08-29 02:00:00 19.6 18 Noroeste 30 Noroeste 0 -- -- 78
2018-08-29 01:00:00 20.7 17 Noroeste 32 Noroeste 0 -- -- 73
2018-08-29 00:00:00 22.2 19 Noroeste 30 Noroeste 0 -- -- 66
2018-08-28 23:00:00 23.4 15 Noroeste 24 Noroeste 0 -- -- 59
2018-08-28 22:00:00 24.7 17 Noroeste 26 Noroeste 0 -- -- 52
2018-08-28 21:00:00 26.6 17 Noroeste 30 Noroeste 0 -- -- 49
2018-08-28 20:00:00 30.9 15 Sudoeste 26 Sur 0 -- -- 24
2018-08-28 19:00:00 32.2 13 Sudoeste 29 Sudoeste 0 -- -- 18
2018-08-28 18:00:00 32.6 12 Sudoeste 28 Sudoeste 0 -- -- 22
2018-08-28 17:00:00 32.2 15 Sudoeste 32 Sudoeste 0 -- -- 32
2018-08-28 16:00:00 31.5 18 Sur 36 Sudoeste 0 -- -- 39
2018-08-28 15:00:00 31 20 Sur 30 Sudoeste 0 -- -- 46
2018-08-28 14:00:00 30.2 17 Sur 28 Sudoeste 0 -- -- 48
2018-08-28 13:00:00 28.8 14 Sur 22 Sur 0 -- -- 54
2018-08-28 12:00:00 26.4 7 Sudeste 15 Este 0 -- -- 65
2018-08-28 11:00:00 24 5 Sur 12 Sur 0 -- -- 76
2018-08-28 10:00:00 21.4 8 Sur 14 Sur 0 -- -- 92
2018-08-28 09:00:00 20.8 10 Sur 14 Sudeste 0 -- -- 94
2018-08-28 08:00:00 20.8 10 Sur 14 Sudeste 0 -- -- 94
2018-08-28 07:00:00 20.9 10 Sur 21 Sur 0 -- -- 94
2018-08-28 06:00:00 21.2 11 Sur 22 Sur 0 -- -- 93
2018-08-28 05:00:00 21.5 7 Sur 16 Sudeste 0 -- -- 90
2018-08-28 04:00:00 21.8 9 Sur 26 Sur 0 -- -- 88
2018-08-28 03:00:00 21.8 15 Sur 30 Sur 0 -- -- 89
2018-08-28 02:00:00 22.2 15 Sur 31 Sur 0 -- -- 89
2018-08-28 01:00:00 22.1 17 Sur 48 Sudeste 0 -- -- 89
2018-08-28 00:00:00 22.5 29 Sur 53 Sudeste 0 -- -- 90
2018-08-27 23:00:00 22.9 25 Sur 39 Sur 0 -- -- 87
2018-08-27 22:00:00 23.9 23 Sur 32 Sur 0 -- -- 76
2018-08-27 21:00:00 27 23 Sur 34 Sudoeste 0 -- -- 59
2018-08-27 20:00:00 30.5 24 Sur 37 Sur 0 -- -- 45
2018-08-27 19:00:00 33.7 18 Sur 35 Sudoeste 0 -- -- 37
2018-08-27 18:00:00 35.1 20 Sur 38 Sur 0 -- -- 29
2018-08-27 17:00:00 34.9 23 Sudoeste 41 Sudoeste 0 -- -- 29
2018-08-27 16:00:00 36.4 23 Sur 47 Sur 0 -- -- 25
2018-08-27 15:00:00 37.5 27 Sur 48 Sudeste 0 -- -- 25
2018-08-27 14:00:00 34 23 Nordeste 37 Nordeste 0 -- -- 27
2018-08-27 13:00:00 31.5 12 Nordeste 22 Nordeste 0 -- -- 30
2018-08-27 12:00:00 30.8 15 Sur 31 Sur 0 -- -- 32
2018-08-27 11:00:00 29.9 10 Este 23 Nordeste 0 -- -- 34
2018-08-27 10:00:00 27 11 Norte 30 Este 0 -- -- 40
2018-08-27 09:00:00 26.7 10 Este 41 Sudoeste 0 -- -- 39
2018-08-27 08:00:00 24.8 15 Este 30 Sur 0 -- -- 42
2018-08-27 07:00:00 25.4 16 Sur 22 Sur 0 -- -- 39
2018-08-27 06:00:00 25.1 7 Este 11 Este 0 -- -- 40
2018-08-27 05:00:00 25 6 Este 12 Este 0 -- -- 42
2018-08-27 04:00:00 25.7 6 Este 10 Nordeste 0 -- -- 41
2018-08-27 03:00:00 25.5 4 Este 7 Nordeste 0 -- -- 40
2018-08-27 02:00:00 25.5 6 Nordeste 9 Nordeste 0 -- -- 41
2018-08-27 01:00:00 26.3 4 Nordeste 6 Nordeste 0 -- -- 39
2018-08-27 00:00:00 26.5 5 Nordeste 7 Nordeste 0 -- -- 40
2018-08-26 23:00:00 26.8 2 Noroeste 6 Sur 0 -- -- 40
2018-08-26 22:00:00 28 0 Calma 27 Sur 0 -- -- 37
2018-08-26 21:00:00 29.5 23 Sur 30 Sur 0 -- -- 34
2018-08-26 20:00:00 31.9 23 Sudoeste 33 Sur 0 -- -- 31
2018-08-26 19:00:00 33.8 21 Sur 34 Sur 0 -- -- 29
2018-08-26 18:00:00 34.6 22 Sur 38 Sur 0 -- -- 24
2018-08-26 17:00:00 35.9 23 Sur 34 Sudeste 0 -- -- 26
2018-08-26 16:00:00 37.2 20 Sudoeste 31 Sudoeste 0 -- -- 24
2018-08-26 15:00:00 36.7 8 Noroeste 27 Sur 0 -- -- 20
2018-08-26 14:00:00 35.1 9 Norte 18 Noroeste 0 -- -- 23
2018-08-26 13:00:00 33.7 4 Norte 12 Noroeste 0 -- -- 26
2018-08-26 12:00:00 29.9 8 Noroeste 12 Noroeste 0 -- -- 32
2018-08-26 11:00:00 25.2 9 Noroeste 12 Oeste 0 -- -- 45
2018-08-26 10:00:00 21.1 8 Noroeste 15 Noroeste 0 -- -- 57
2018-08-26 09:00:00 18.5 7 Oeste 15 Oeste 0 -- -- 64
2018-08-26 08:00:00 17.6 8 Oeste 15 Oeste 0 -- -- 67
2018-08-26 07:00:00 18.2 8 Oeste 17 Oeste 0 -- -- 66
2018-08-26 06:00:00 19.2 9 Oeste 19 Noroeste 0 -- -- 62
2018-08-26 05:00:00 20.1 11 Noroeste 22 Oeste 0 -- -- 58
2018-08-26 04:00:00 21.5 13 Noroeste 21 Oeste 0 -- -- 51
2018-08-26 03:00:00 22.5 11 Noroeste 22 Noroeste 0 -- -- 47
2018-08-26 02:00:00 23.8 15 Noroeste 21 Noroeste 0 -- -- 41
2018-08-26 01:00:00 25.7 12 Noroeste 18 Noroeste 0 -- -- 35
2018-08-26 00:00:00 26.9 10 Noroeste 19 Noroeste 0 -- -- 32
2018-08-25 23:00:00 27.9 13 Noroeste 18 Noroeste 0 -- -- 28
2018-08-25 22:00:00 29.8 9 Noroeste 18 Noroeste 0 -- -- 25
2018-08-25 21:00:00 32 11 Oeste 20 Sur 0 -- -- 28
2018-08-25 20:00:00 34.3 14 Sur 26 Sur 0 -- -- 28
2018-08-25 19:00:00 36.7 12 Sudoeste 24 Sudoeste 0 -- -- 24
2018-08-25 18:00:00 37.4 11 Oeste 22 Nordeste 0 -- -- 18
2018-08-25 17:00:00 37 8 Norte 26 Oeste 0 -- -- 19
2018-08-25 16:00:00 36.8 10 Oeste 19 Oeste 0 -- -- 20
2018-08-25 15:00:00 36.4 8 Noroeste 21 Noroeste 0 -- -- 19
2018-08-25 14:00:00 34.5 6 Norte 23 Oeste 0 -- -- 22
2018-08-25 13:00:00 32.9 6 Oeste 17 Sur 0 -- -- 26
2018-08-25 12:00:00 30 10 Noroeste 15 Oeste 0 -- -- 29
2018-08-25 11:00:00 26.4 12 Noroeste 18 Noroeste 0 -- -- 37
2018-08-25 10:00:00 23.3 10 Noroeste 17 Noroeste 0 -- -- 47
2018-08-25 09:00:00 20.9 8 Oeste 14 Oeste 0 -- -- 52
2018-08-25 08:00:00 20 11 Noroeste 19 Noroeste 0 -- -- 57
2018-08-25 07:00:00 20.5 12 Noroeste 20 Noroeste 0 -- -- 58
2018-08-25 06:00:00 21.3 12 Noroeste 24 Noroeste 0 -- -- 58
2018-08-25 05:00:00 22.4 16 Noroeste 24 Noroeste 0 -- -- 57
2018-08-25 04:00:00 23.5 18 Noroeste 23 Noroeste 0 -- -- 56
2018-08-25 03:00:00 24.3 14 Noroeste 21 Noroeste 0 -- -- 59
2018-08-25 02:00:00 25.3 14 Noroeste 20 Noroeste 0 -- -- 56
2018-08-25 01:00:00 26.2 12 Noroeste 19 Noroeste 0 -- -- 52
2018-08-25 00:00:00 28 12 Noroeste 18 Noroeste 0 -- -- 43